METAR AND TAF INFORMATION
METAR FOR LTCM
ADDS - METARS form results

(2030 UTC 19 October 2018)
Data provider http://aviationweather.gov/metar/data/
 
Forecast for: LTCM (SINOP AIRPORT , TR)
Text: TAF LTCM 191340Z 1915/1924 29008KT 9999 SCT030 BKN090
Forecast period: 1500 UTC 19 October 2018 to 0000 UTC 20 October 2018
Forecast type: FROM: standard forecast or significant change
Winds: from the WNW (290 degrees) at 9 MPH (8 knots; 4.1 m/s)
Visibility: 6 or more miles 10+ km)
Ceiling: 9000 feet AGL
Clouds: scattered clouds at 3000 feet AGL
broken clouds at 9000 feet AGL
Weather: no significant weather forecast for this period

 AIRPORT MAP

 RUNWAY INFORMATION

 AIRPORT FREQUENCIES

 AIRPORT NEAR NAVIGATION AIDS
Type VOR-DME Name Sinop Frequency 114000 KHZ
Type NDB Name Sinop Frequency 465 KHZ



Copyright © 2011 - 2018 BirgenAir Virtual Airlines. All rights reserved. Developed by Goktug Unver